Time;durP1;ratioP1;P1;durP2;ratioP2;P2;SDS_P1;SDS_P2;PMS_P1;PMS_P2;Temp;Humidity;BMP_temperature;BMP_pressure;BME280_temperature;BME280_humidity;BME280_pressure;Samples;Min_cycle;Max_cycle;Signal;HPM_P1;HPM_P2
2021/10/12 00:01:54;;;;;;;113.37;71.02;;;;;;;7.37;69.91;99886.59;1805541;78;21532;-74
2021/10/12 00:04:21;;;;;;;145.20;77.87;;;;;;;7.35;69.92;99878.48;1835577;78;21044;-74
2021/10/12 00:06:47;;;;;;;121.82;75.05;;;;;;;7.36;69.84;99884.95;1803663;79;21562;-74
2021/10/12 00:09:14;;;;;;;120.70;76.10;;;;;;;7.36;69.74;99880.13;1784268;78;21593;-74
2021/10/12 00:11:42;;;;;;;131.43;78.57;;;;;;;7.34;69.64;99876.84;1836586;78;21040;-76
2021/10/12 00:14:08;;;;;;;114.70;76.30;;;;;;;7.30;69.69;99874.32;1803733;78;20996;-80
2021/10/12 00:16:34;;;;;;;117.03;70.97;;;;;;;7.24;69.67;99874.69;1834371;78;21006;-80
2021/10/12 00:19:01;;;;;;;113.30;67.27;;;;;;;7.17;69.83;99869.95;1808564;78;21096;-76
2021/10/12 00:21:27;;;;;;;115.28;73.62;;;;;;;7.07;70.01;99864.30;1805432;78;21158;-77
2021/10/12 00:23:55;;;;;;;115.15;67.78;;;;;;;6.96;70.36;99865.85;1836509;78;20961;-81
2021/10/12 00:26:21;;;;;;;117.15;73.35;;;;;;;6.87;70.64;99858.34;1809071;78;20950;-76
2021/10/12 00:28:48;;;;;;;114.65;70.22;;;;;;;6.81;70.92;99861.38;1836798;77;20954;-77
2021/10/12 00:31:15;;;;;;;108.78;73.83;;;;;;;6.79;71.11;99864.80;1836231;77;20961;-78
2021/10/12 00:33:41;;;;;;;118.15;69.12;;;;;;;6.77;71.22;99864.20;1808964;78;21040;-83
2021/10/12 00:36:10;;;;;;;123.25;76.12;;;;;;;6.78;71.38;99862.34;1809184;78;21377;-84
2021/10/12 00:38:36;;;;;;;131.45;73.52;;;;;;;6.78;71.49;99863.69;1808689;78;20957;-80
2021/10/12 00:41:08;;;;;;;121.02;72.32;;;;;;;6.78;71.68;99858.34;1836609;78;21560;-78
2021/10/12 00:43:35;;;;;;;130.75;74.65;;;;;;;6.86;71.84;99855.36;1836839;78;20946;-82
2021/10/12 00:46:02;;;;;;;125.02;75.85;;;;;;;6.97;71.66;99844.77;1806665;78;21003;-82
2021/10/12 00:48:29;;;;;;;136.32;80.87;;;;;;;7.08;71.44;99843.73;1805985;78;20875;-81
2021/10/12 00:50:55;;;;;;;130.60;78.70;;;;;;;7.11;71.19;99844.09;1805192;78;21013;-75
2021/10/12 00:53:21;;;;;;;134.27;78.02;;;;;;;7.16;71.09;99836.73;1836247;78;20938;-77
2021/10/12 00:55:47;;;;;;;108.37;68.28;;;;;;;7.19;70.87;99839.80;1836411;78;21020;-76
2021/10/12 00:58:14;;;;;;;122.75;73.70;;;;;;;7.10;70.84;99838.44;1836906;78;21021;-78
2021/10/12 01:00:43;;;;;;;122.05;76.15;;;;;;;6.95;71.04;99834.80;1804618;78;20931;-78
2021/10/12 01:03:09;;;;;;;134.47;79.17;;;;;;;6.84;71.34;99836.08;1800953;78;21517;-78
2021/10/12 01:05:35;;;;;;;143.72;85.97;;;;;;;6.76;71.66;99834.48;1822408;78;21023;-78
2021/10/12 01:08:02;;;;;;;119.70;76.80;;;;;;;6.74;71.84;99831.24;1822279;78;21005;-77
2021/10/12 01:10:29;;;;;;;121.95;76.53;;;;;;;6.75;71.92;99833.40;1818627;78;22717;-76
2021/10/12 01:12:56;;;;;;;103.75;67.15;;;;;;;6.77;71.85;99831.30;1820477;78;20973;-72
2021/10/12 01:15:22;;;;;;;100.55;64.42;;;;;;;6.79;71.76;99826.56;1798075;78;20969;-77
2021/10/12 01:17:50;;;;;;;102.58;63.65;;;;;;;6.81;71.64;99827.17;1798577;78;20926;-75
2021/10/12 01:20:16;;;;;;;102.95;60.50;;;;;;;6.81;71.47;99827.97;1797356;78;21049;-76
2021/10/12 01:22:44;;;;;;;92.25;61.00;;;;;;;6.84;71.33;99822.71;1820820;78;21123;-74
2021/10/12 01:25:11;;;;;;;79.77;49.70;;;;;;;6.85;71.24;99825.17;1792582;79;21520;-76
2021/10/12 01:27:37;;;;;;;91.87;56.18;;;;;;;6.89;71.17;99823.68;1798941;78;21494;-80
2021/10/12 01:30:05;;;;;;;103.90;64.85;;;;;;;6.97;71.06;99817.20;1819521;78;20987;-77
2021/10/12 01:32:39;;;;;;;98.52;63.10;;;;;;;7.07;71.01;99822.03;1817771;78;21516;-77
2021/10/12 01:35:06;;;;;;;;;;;;;;;7.11;70.90;99817.34;1799007;78;21096;-78
2021/10/12 01:37:33;;;;;;;90.20;59.18;;;;;;;7.15;70.81;99818.53;1797175;78;20101;-77
2021/10/12 01:40:01;;;;;;;93.92;56.37;;;;;;;7.14;70.73;99810.23;1820154;78;21009;-75
2021/10/12 01:42:27;;;;;;;95.53;56.65;;;;;;;7.17;70.48;99812.97;1798286;78;20938;-75
2021/10/12 01:44:54;;;;;;;91.03;58.37;;;;;;;7.13;70.31;99807.25;1821723;78;21077;-75
2021/10/12 01:47:20;;;;;;;88.70;56.53;;;;;;;7.12;70.39;99812.81;1798480;78;21087;-71
2021/10/12 01:49:47;;;;;;;90.92;58.08;;;;;;;7.12;70.34;99800.78;1820214;78;21546;-72
2021/10/12 01:52:14;;;;;;;82.27;52.78;;;;;;;7.10;70.37;99800.21;1797551;78;21497;-71
2021/10/12 01:54:40;;;;;;;83.47;53.20;;;;;;;7.08;70.32;99799.09;1796153;78;21017;-69
2021/10/12 01:57:06;;;;;;;80.17;54.67;;;;;;;7.01;70.39;99797.00;1821373;78;21484;-72
2021/10/12 01:59:33;;;;;;;79.05;51.53;;;;;;;6.93;70.56;99797.31;1820903;78;21939;-73
2021/10/12 02:02:02;;;;;;;75.62;49.50;;;;;;;6.85;70.79;99796.28;1794179;78;20978;-71
2021/10/12 02:04:32;;;;;;;72.47;47.85;;;;;;;6.73;71.09;99792.70;1799076;79;21037;-71
2021/10/12 02:07:00;;;;;;;70.30;47.30;;;;;;;6.65;71.40;99800.50;1802803;79;21100;-71
2021/10/12 02:09:26;;;;;;;74.05;46.55;;;;;;;6.59;71.65;99794.70;1741940;81;21082;-71
2021/10/12 02:11:53;;;;;;;84.10;52.75;;;;;;;6.50;71.87;99794.69;1796587;79;22141;-71
2021/10/12 02:14:19;;;;;;;75.80;46.33;;;;;;;6.49;72.09;99796.55;1769322;79;21467;-74
2021/10/12 02:16:45;;;;;;;77.80;48.58;;;;;;;6.49;72.17;99790.38;1796595;79;21053;-72
2021/10/12 02:19:12;;;;;;;81.87;49.15;;;;;;;6.45;72.34;99790.52;1769442;79;21046;-71
2021/10/12 02:21:38;;;;;;;92.78;61.50;;;;;;;6.43;72.46;99789.40;1791078;79;21596;-71
2021/10/12 02:24:05;;;;;;;74.32;46.75;;;;;;;6.43;72.59;99786.73;1795491;79;21957;-71
2021/10/12 02:26:32;;;;;;;73.47;45.17;;;;;;;6.41;72.70;99782.14;1797022;79;20982;-70
2021/10/12 02:28:58;;;;;;;78.10;48.65;;;;;;;6.41;72.74;99778.65;1744518;79;21522;-70
2021/10/12 02:31:24;;;;;;;81.00;51.23;;;;;;;6.39;72.79;99778.86;1792013;79;21085;-71
2021/10/12 02:33:51;;;;;;;75.05;53.23;;;;;;;6.37;72.87;99776.12;1790646;79;21027;-69
2021/10/12 02:36:17;;;;;;;94.58;62.90;;;;;;;6.33;72.94;99766.38;1793975;79;21083;-70
2021/10/12 02:38:43;;;;;;;80.85;55.92;;;;;;;6.31;72.97;99768.98;1796377;79;20923;-71
2021/10/12 02:41:09;;;;;;;81.63;56.10;;;;;;;6.29;73.04;99767.04;1796003;79;21022;-71
2021/10/12 02:43:37;;;;;;;86.85;61.53;;;;;;;6.27;73.10;99765.95;1794576;79;21044;-70
2021/10/12 02:46:04;;;;;;;88.33;56.70;;;;;;;6.21;73.25;99768.16;1768015;79;20990;-72
2021/10/12 02:48:30;;;;;;;97.15;60.83;;;;;;;6.17;73.38;99760.80;1796406;79;21189;-73
2021/10/12 02:50:57;;;;;;;90.75;60.58;;;;;;;6.12;73.50;99762.28;1796048;79;21074;-71
2021/10/12 02:53:23;;;;;;;84.92;58.52;;;;;;;6.11;73.66;99755.30;1765560;80;21062;-72
2021/10/12 02:55:49;;;;;;;104.25;66.10;;;;;;;6.12;73.81;99758.79;1769254;79;21492;-71
2021/10/12 02:58:15;;;;;;;83.58;57.88;;;;;;;6.08;73.91;99745.06;1796842;79;20959;-70
2021/10/12 03:00:42;;;;;;;85.03;55.45;;;;;;;6.08;73.97;99749.59;1796047;79;21750;-70
2021/10/12 03:03:12;;;;;;;88.95;60.17;;;;;;;6.04;74.04;99739.05;1769477;79;20958;-71
2021/10/12 03:05:44;;;;;;;83.47;55.88;;;;;;;6.00;74.16;99741.32;1793235;79;21539;-72
2021/10/12 03:08:11;;;;;;;81.80;53.65;;;;;;;5.99;74.30;99738.38;1769564;79;21015;-72
2021/10/12 03:10:38;;;;;;;74.10;48.05;;;;;;;5.95;74.42;99740.34;1769222;79;20992;-70
2021/10/12 03:13:04;;;;;;;95.20;56.42;;;;;;;5.93;74.53;99741.09;1796128;79;21231;-70
2021/10/12 03:15:31;;;;;;;94.42;58.78;;;;;;;5.89;74.66;99733.22;1796298;79;21003;-72
2021/10/12 03:17:58;;;;;;;93.70;62.80;;;;;;;5.88;74.80;99733.73;1791444;79;20981;-71
2021/10/12 03:20:24;;;;;;;131.15;78.65;;;;;;;5.92;74.83;99726.11;1791910;79;20981;-70
2021/10/12 03:22:50;;;;;;;151.42;96.85;;;;;;;5.92;74.82;99724.77;1769490;79;21035;-70
2021/10/12 03:25:17;;;;;;;179.70;107.58;;;;;;;5.92;74.88;99726.92;1769078;79;20987;-70
2021/10/12 03:27:43;;;;;;;156.22;95.87;;;;;;;5.93;74.91;99727.23;1766294;80;20976;-72
2021/10/12 03:30:10;;;;;;;181.18;111.00;;;;;;;5.95;74.82;99723.80;1741157;79;20955;-74
2021/10/12 03:32:37;;;;;;;175.40;110.57;;;;;;;5.98;74.74;99728.73;1769466;79;20980;-72
2021/10/12 03:35:04;;;;;;;166.25;101.65;;;;;;;5.97;74.59;99721.75;1769531;79;21049;-73
2021/10/12 03:37:30;;;;;;;124.97;79.07;;;;;;;5.94;74.58;99722.20;1769634;79;21001;-73
2021/10/12 03:39:57;;;;;;;123.82;73.67;;;;;;;5.98;74.52;99719.89;1767722;80;20995;-74
2021/10/12 03:42:23;;;;;;;104.30;64.82;;;;;;;5.94;74.34;99714.70;1790662;80;21020;-74
2021/10/12 03:44:50;;;;;;;94.77;58.75;;;;;;;5.92;74.41;99721.59;1764306;79;21094;-74
2021/10/12 03:47:16;;;;;;;90.90;59.45;;;;;;;5.89;74.37;99714.03;1765798;79;20936;-76
2021/10/12 03:49:43;;;;;;;96.32;54.90;;;;;;;5.88;74.36;99716.39;1751696;81;21076;-74
2021/10/12 03:52:09;;;;;;;71.53;45.65;;;;;;;5.88;74.38;99716.39;1739010;81;20991;-75
2021/10/12 03:54:37;;;;;;;80.95;47.45;;;;;;;5.88;74.32;99711.05;1765024;81;32503;-75
2021/10/12 03:57:03;;;;;;;98.03;56.15;;;;;;;5.85;74.35;99706.64;1770505;79;21085;-74
2021/10/12 03:59:30;;;;;;;83.12;50.73;;;;;;;5.83;74.45;99712.19;1796377;79;21066;-74
2021/10/12 04:01:56;;;;;;;89.77;56.63;;;;;;;5.92;74.55;99710.09;1791434;79;21116;-74
2021/10/12 04:04:22;;;;;;;96.10;60.45;;;;;;;5.93;74.34;99708.55;1775403;79;20923;-74
2021/10/12 04:06:49;;;;;;;74.03;46.33;;;;;;;5.98;74.24;99711.37;1783347;80;21012;-76
2021/10/12 04:09:15;;;;;;;83.20;51.63;;;;;;;6.03;74.04;99712.87;1800661;79;20975;-82
2021/10/12 04:11:42;;;;;;;79.22;50.08;;;;;;;6.01;73.92;99712.27;1800665;79;21028;-76
2021/10/12 04:14:09;;;;;;;76.00;48.10;;;;;;;5.97;73.90;99707.06;1800480;79;21049;-72
2021/10/12 04:16:37;;;;;;;79.17;48.23;;;;;;;5.94;73.88;99701.36;1800671;79;20992;-72
2021/10/12 04:19:03;;;;;;;74.15;47.05;;;;;;;5.95;73.87;99698.45;1776305;79;21056;-72
2021/10/12 04:21:29;;;;;;;59.40;38.10;;;;;;;5.98;73.74;99698.55;1799096;79;22313;-70
2021/10/12 04:23:56;;;;;;;58.60;41.92;;;;;;;6.01;73.62;99690.08;1799533;79;21055;-71
2021/10/12 04:26:25;;;;;;;66.17;40.80;;;;;;;6.00;73.53;99699.13;1799482;79;21472;-71
2021/10/12 04:28:51;;;;;;;93.45;55.67;;;;;;;6.00;73.50;99692.45;1799356;79;21028;-70
2021/10/12 04:31:17;;;;;;;89.75;53.30;;;;;;;5.95;73.48;99687.77;1799353;79;21026;-73
2021/10/12 04:33:43;;;;;;;106.95;65.47;;;;;;;5.91;73.55;99692.44;1776683;79;20996;-70
2021/10/12 04:36:10;;;;;;;99.58;60.83;;;;;;;5.85;73.67;99689.30;1799019;79;21509;-72
2021/10/12 04:38:36;;;;;;;109.45;68.12;;;;;;;5.81;73.75;99683.56;1799286;79;21167;-70
2021/10/12 04:41:02;;;;;;;104.17;67.72;;;;;;;5.78;73.86;99682.67;1799621;79;20954;-70
2021/10/12 04:43:29;;;;;;;121.77;72.15;;;;;;;5.74;73.86;99684.66;1800589;79;21029;-71
2021/10/12 04:45:56;;;;;;;108.70;71.85;;;;;;;5.67;73.96;99681.53;1800681;79;21038;-69
2021/10/12 04:48:22;;;;;;;121.00;72.80;;;;;;;5.63;74.11;99678.19;1801075;79;20935;-70
2021/10/12 04:50:48;;;;;;;127.27;77.47;;;;;;;5.57;74.37;99678.53;1800803;79;21122;-72
2021/10/12 04:53:14;;;;;;;138.35;85.22;;;;;;;5.51;74.58;99674.59;1800515;79;20938;-70
2021/10/12 04:55:41;;;;;;;129.95;80.50;;;;;;;5.49;74.69;99678.81;1777611;79;21522;-70
2021/10/12 04:58:09;;;;;;;100.42;62.00;;;;;;;5.51;74.82;99681.27;1777668;79;21561;-73
2021/10/12 05:00:36;;;;;;;112.62;65.15;;;;;;;5.55;74.86;99682.47;1777248;79;21579;-71
2021/10/12 05:03:03;;;;;;;92.80;60.30;;;;;;;5.52;74.85;99679.70;1798966;79;21183;-69
2021/10/12 05:05:29;;;;;;;107.50;61.83;;;;;;;5.53;74.93;99682.67;1771610;79;21014;-71
2021/10/12 05:07:58;;;;;;;99.20;59.13;;;;;;;5.55;74.93;99678.46;1798994;79;20876;-70
2021/10/12 05:10:25;;;;;;;101.78;57.65;;;;;;;5.58;74.96;99678.84;1796738;79;20887;-71
2021/10/12 05:12:52;;;;;;;79.90;54.00;;;;;;;5.64;74.97;99674.48;1796628;79;21070;-71
2021/10/12 05:15:22;;;;;;;102.47;59.23;;;;;;;5.69;74.92;99678.14;1798030;79;21526;-68
2021/10/12 05:17:50;;;;;;;92.37;49.95;;;;;;;5.74;74.89;99679.33;1799144;79;20920;-69
2021/10/12 05:20:17;;;;;;;83.47;52.43;;;;;;;5.81;74.76;99678.22;1798358;79;20955;-69
2021/10/12 05:22:46;;;;;;;92.57;55.52;;;;;;;5.86;74.62;99668.22;1771359;79;20976;-72
2021/10/12 05:25:14;;;;;;;83.37;52.55;;;;;;;5.84;74.53;99676.47;1771489;79;20988;-70
2021/10/12 05:27:41;;;;;;;83.42;50.05;;;;;;;5.82;74.57;99671.85;1771605;79;21084;-69
2021/10/12 05:30:10;;;;;;;72.72;48.33;;;;;;;5.81;74.65;99672.88;1798420;79;21483;-70
2021/10/12 05:32:38;;;;;;;94.10;61.75;;;;;;;5.84;74.77;99675.13;1797621;79;21076;-78
2021/10/12 05:35:05;;;;;;;106.47;55.95;;;;;;;5.85;74.97;99675.41;1800202;79;21477;-69
2021/10/12 05:37:32;;;;;;;121.82;59.33;;;;;;;5.89;74.97;99670.50;1799868;79;21046;-69
2021/10/12 05:39:58;;;;;;;94.20;55.45;;;;;;;5.96;74.89;99671.23;1800035;79;21520;-69
2021/10/12 05:42:25;;;;;;;98.27;56.02;;;;;;;6.00;74.72;99667.09;1772766;79;20915;-68
2021/10/12 05:44:51;;;;;;;90.12;57.00;;;;;;;6.02;74.66;99661.84;1799283;79;21379;-71
2021/10/12 05:47:17;;;;;;;94.65;54.53;;;;;;;6.02;74.59;99665.03;1800444;79;20895;-70
2021/10/12 05:49:43;;;;;;;99.83;56.23;;;;;;;6.01;74.61;99665.54;1773346;79;20999;-71
2021/10/12 05:52:14;;;;;;;88.85;60.85;;;;;;;6.03;74.71;99661.33;1799870;79;21078;-70
2021/10/12 05:54:44;;;;;;;105.17;63.00;;;;;;;6.01;74.79;99659.38;1799809;79;21645;-69
2021/10/12 05:57:07;;;;;;;96.70;55.10;;;;;;;6.02;74.87;99661.84;1771987;79;21037;-71
2021/10/12 05:59:34;;;;;;;99.35;54.33;;;;;;;6.04;74.97;99658.96;1799922;79;20967;-72
2021/10/12 06:02:01;;;;;;;95.65;50.38;;;;;;;6.06;74.98;99663.03;1799757;79;21074;-72
2021/10/12 06:04:27;;;;;;;74.62;45.08;;;;;;;6.13;75.09;99665.13;1785471;79;21343;-73
2021/10/12 06:07:01;;;;;;;69.90;43.90;;;;;;;6.19;75.04;99655.94;1781512;80;21016;-71
2021/10/12 06:09:23;;;;;;;85.55;46.77;;;;;;;6.22;74.96;99658.97;1759839;80;21049;-70
2021/10/12 06:11:50;;;;;;;68.12;46.15;;;;;;;6.25;74.88;99660.36;1760895;80;20993;-71
2021/10/12 06:14:16;;;;;;;76.05;49.10;;;;;;;6.29;74.85;99657.53;1760984;80;21000;-72
2021/10/12 06:16:42;;;;;;;96.08;52.62;;;;;;;6.33;74.77;99659.53;1760995;80;21820;-71
2021/10/12 06:19:09;;;;;;;107.35;62.55;;;;;;;6.38;74.61;99657.56;1783177;80;21016;-70
2021/10/12 06:21:35;;;;;;;85.07;50.85;;;;;;;6.38;74.55;99666.91;1755885;80;21033;-71
2021/10/12 06:24:02;;;;;;;94.90;57.55;;;;;;;6.42;74.50;99658.74;1755203;80;20987;-69
2021/10/12 06:26:29;;;;;;;81.57;51.08;;;;;;;6.45;74.42;99656.95;1761170;80;22160;-68
2021/10/12 06:28:55;;;;;;;72.50;44.38;;;;;;;6.49;74.42;99656.80;1761421;80;21262;-69
2021/10/12 06:31:22;;;;;;;65.52;40.45;;;;;;;6.56;74.34;99657.55;1783089;80;20984;-74
2021/10/12 06:33:49;;;;;;;61.95;40.60;;;;;;;6.64;74.26;99655.07;1761045;80;21098;-70
2021/10/12 06:36:15;;;;;;;58.50;37.70;;;;;;;6.71;74.24;99657.97;1761156;80;20921;-71
2021/10/12 06:38:42;;;;;;;58.13;38.05;;;;;;;6.79;74.11;99654.16;1783128;80;21080;-70
2021/10/12 06:41:10;;;;;;;55.05;37.80;;;;;;;6.87;74.02;99654.66;1777346;80;21019;-72
2021/10/12 06:43:36;;;;;;;60.58;43.90;;;;;;;6.97;73.81;99656.27;1755067;80;20924;-71
2021/10/12 06:46:04;;;;;;;64.87;39.10;;;;;;;7.06;73.74;99663.44;1758110;80;20933;-70
2021/10/12 06:48:32;;;;;;;54.93;39.60;;;;;;;7.20;73.58;99655.52;1759022;80;21028;-70
2021/10/12 06:50:59;;;;;;;65.22;38.98;;;;;;;7.32;73.36;99650.20;1759172;80;21003;-70
2021/10/12 06:53:25;;;;;;;87.33;52.27;;;;;;;7.39;73.21;99653.58;1781480;80;21483;-71
2021/10/12 06:55:53;;;;;;;66.25;45.23;;;;;;;7.45;73.19;99655.34;1781333;80;20966;-71
2021/10/12 06:58:19;;;;;;;92.47;51.92;;;;;;;7.51;73.15;99650.94;1754987;80;20959;-70
2021/10/12 07:00:45;;;;;;;78.70;51.48;;;;;;;7.58;73.07;99644.41;1760155;80;21044;-73
2021/10/12 07:03:12;;;;;;;87.30;55.67;;;;;;;7.67;72.98;99645.73;1761032;79;21074;-70
2021/10/12 07:05:39;;;;;;;79.37;53.15;;;;;;;7.75;72.79;99641.88;1773354;79;21985;-73
2021/10/12 07:08:06;;;;;;;82.88;52.80;;;;;;;7.83;72.60;99642.86;1773465;79;21558;-68
2021/10/12 07:10:32;;;;;;;85.80;49.65;;;;;;;7.92;72.50;99640.64;1772780;79;21063;-69
2021/10/12 07:12:59;;;;;;;70.72;48.63;;;;;;;8.02;72.37;99641.69;1799878;79;21660;-68
2021/10/12 07:15:25;;;;;;;66.53;45.43;;;;;;;8.14;72.18;99639.83;1796502;79;21471;-69
2021/10/12 07:17:54;;;;;;;74.40;49.40;;;;;;;8.28;71.89;99637.18;1769570;79;21062;-71
2021/10/12 07:20:20;;;;;;;77.58;47.88;;;;;;;8.43;71.57;99643.94;1799077;79;20924;-74
2021/10/12 07:22:46;;;;;;;67.78;46.33;;;;;;;8.56;71.11;99646.34;1772617;79;21039;-71
2021/10/12 07:25:14;;;;;;;67.35;42.83;;;;;;;8.66;70.74;99639.32;1799385;79;21045;-73
2021/10/12 07:27:40;;;;;;;59.08;42.15;;;;;;;8.78;70.46;99635.80;1772681;79;21503;-70
2021/10/12 07:30:08;;;;;;;60.63;41.05;;;;;;;8.90;70.00;99637.88;1772713;79;21101;-72
2021/10/12 07:32:35;;;;;;;58.92;39.58;;;;;;;9.00;69.73;99632.19;1799719;79;21016;-72
2021/10/12 07:35:05;;;;;;;56.63;36.70;;;;;;;9.13;69.43;99627.84;1772640;79;21532;-68
2021/10/12 07:37:34;;;;;;;59.53;38.98;;;;;;;9.26;68.87;99630.73;1772682;79;21502;-70
2021/10/12 07:39:59;;;;;;;54.30;36.70;;;;;;;9.38;68.46;99619.95;1770513;79;21033;-71
2021/10/12 07:42:26;;;;;;;52.38;35.85;;;;;;;9.50;67.83;99617.98;1796286;79;22064;-70
2021/10/12 07:44:52;;;;;;;48.68;34.45;;;;;;;9.60;67.41;99612.24;1770934;79;21006;-71
2021/10/12 07:47:20;;;;;;;52.70;35.90;;;;;;;9.73;67.17;99618.36;1775346;78;20985;-71
2021/10/12 07:49:48;;;;;;;47.88;32.25;;;;;;;9.84;66.78;99614.73;1799886;79;20979;-73
2021/10/12 07:52:15;;;;;;;51.95;32.15;;;;;;;9.97;66.45;99613.88;1772905;79;21549;-70
2021/10/12 07:54:46;;;;;;;52.00;33.53;;;;;;;10.10;66.06;99606.52;1771678;79;21738;-71
2021/10/12 07:57:16;;;;;;;45.52;32.73;;;;;;;10.21;65.72;99602.94;1798281;79;20975;-70
2021/10/12 07:59:43;;;;;;;46.02;31.23;;;;;;;10.33;65.40;99604.42;1741979;81;20982;-71
2021/10/12 08:02:12;;;;;;;48.98;31.33;;;;;;;10.46;65.04;99603.23;1768357;81;20966;-71
2021/10/12 08:04:42;;;;;;;40.52;30.15;;;;;;;10.59;64.68;99601.52;1789742;79;20984;-72
2021/10/12 08:07:09;;;;;;;41.53;29.05;;;;;;;10.72;64.27;99596.27;1797855;79;21131;-71
2021/10/12 08:09:36;;;;;;;41.20;28.42;;;;;;;10.85;63.96;99594.52;1797726;79;21554;-71
2021/10/12 08:12:03;;;;;;;35.60;26.17;;;;;;;10.97;63.68;99591.16;1772856;79;21623;-72
2021/10/12 08:14:33;;;;;;;36.03;27.45;;;;;;;11.10;63.43;99591.25;1772896;79;21519;-74
2021/10/12 08:17:00;;;;;;;40.63;27.10;;;;;;;11.22;62.70;99586.53;1763402;79;21500;-71
2021/10/12 08:19:27;;;;;;;32.38;25.05;;;;;;;11.32;62.50;99577.98;1797960;79;21106;-73
2021/10/12 08:21:53;;;;;;;39.78;28.55;;;;;;;11.45;62.43;99575.41;1773032;79;21016;-72
2021/10/12 08:24:20;;;;;;;41.25;27.48;;;;;;;11.57;62.12;99569.28;1798125;79;20968;-73
2021/10/12 08:26:50;;;;;;;34.13;25.17;;;;;;;11.70;61.89;99569.39;1797994;79;20912;-72
2021/10/12 08:29:18;;;;;;;33.18;24.47;;;;;;;11.80;61.01;99558.67;1773207;79;21074;-73
2021/10/12 08:31:46;;;;;;;34.05;24.43;;;;;;;11.91;60.22;99556.32;1798103;79;21466;-72
2021/10/12 08:34:16;;;;;;;28.50;23.42;;;;;;;12.03;60.15;99550.73;1771515;79;21072;-70
2021/10/12 08:36:42;;;;;;;36.45;23.02;;;;;;;12.15;59.87;99545.92;1797154;79;20993;-71
2021/10/12 08:39:08;;;;;;;31.33;21.62;;;;;;;12.28;59.47;99549.47;1798289;79;21507;-69
2021/10/12 08:41:41;;;;;;;30.68;22.05;;;;;;;12.40;59.18;99550.06;1797907;79;21014;-71
2021/10/12 08:44:07;;;;;;;31.90;23.38;;;;;;;12.51;58.44;99546.86;1772894;79;22565;-71
2021/10/12 08:46:34;;;;;;;36.15;24.12;;;;;;;12.61;58.32;99545.55;1796672;79;21563;-71
2021/10/12 08:49:00;;;;;;;30.57;21.07;;;;;;;12.72;57.57;99539.61;1760036;79;20959;-71
2021/10/12 08:51:26;;;;;;;25.12;19.75;;;;;;;12.81;57.62;99545.56;1797687;79;21062;-71
2021/10/12 08:53:52;;;;;;;27.98;20.90;;;;;;;12.92;57.12;99543.16;1773251;79;20992;-68
2021/10/12 08:56:19;;;;;;;25.55;20.25;;;;;;;13.02;56.80;99535.60;1772838;79;21208;-70
2021/10/12 08:58:46;;;;;;;30.17;20.70;;;;;;;13.11;56.65;99529.96;1772660;79;21489;-71
2021/10/12 09:01:13;;;;;;;39.85;21.00;;;;;;;13.24;56.37;99529.95;1797185;79;21021;-72
2021/10/12 09:03:50;;;;;;;24.45;19.82;;;;;;;13.34;55.92;99529.41;1796450;79;21522;-70
2021/10/12 09:06:30;;;;;;;27.58;19.87;;;;;;;13.42;55.30;99526.17;1775697;79;21030;-70
2021/10/12 09:09:04;;;;;;;21.82;17.02;;;;;;;13.53;55.30;99522.36;1797884;79;21504;-71
2021/10/12 09:11:33;;;;;;;22.15;18.35;;;;;;;13.65;54.83;99509.91;1798584;79;21496;-72
2021/10/12 09:14:07;;;;;;;25.02;19.65;;;;;;;13.76;54.67;99516.92;1798446;79;21475;-73
2021/10/12 09:16:43;;;;;;;26.15;17.32;;;;;;;13.83;54.31;99510.66;1769847;79;21531;-71
2021/10/12 09:19:14;;;;;;;23.92;16.95;;;;;;;13.88;54.04;99509.30;1798519;79;20995;-70
2021/10/12 09:21:49;;;;;;;29.98;19.70;;;;;;;13.95;53.80;99509.83;1797941;79;21057;-74
2021/10/12 09:24:23;;;;;;;23.98;18.12;;;;;;;14.02;53.87;99503.29;1798687;79;20990;-75
2021/10/12 09:26:57;;;;;;;20.62;16.07;;;;;;;14.12;53.61;99505.95;1796949;78;21027;-70
2021/10/12 09:29:26;;;;;;;19.42;15.72;;;;;;;14.19;53.00;99501.88;1763151;80;20912;-70
2021/10/12 09:31:57;;;;;;;27.02;17.50;;;;;;;14.21;52.76;99496.98;1787062;79;20971;-69
2021/10/12 09:34:23;;;;;;;23.80;16.02;;;;;;;14.25;52.83;99493.17;1758684;80;21093;-75
2021/10/12 09:36:51;;;;;;;17.92;14.68;;;;;;;14.32;52.75;99485.57;1732421;81;20979;-73
2021/10/12 09:39:39;;;;;;;21.75;15.28;;;;;;;14.36;52.68;99491.53;1769824;79;20982;-77
2021/10/12 09:42:09;;;;;;;20.40;14.70;;;;;;;14.40;52.43;99479.59;1795679;79;20980;-77
2021/10/12 09:44:54;;;;;;;29.70;16.35;;;;;;;14.44;52.37;99478.48;1795819;79;21507;-77
2021/10/12 09:47:22;;;;;;;23.75;15.55;;;;;;;14.48;52.37;99474.97;1768477;80;21073;-79
2021/10/12 09:49:48;;;;;;;19.20;14.18;;;;;;;14.55;52.43;99469.22;1791534;80;21496;-76
2021/10/12 09:52:20;;;;;;;27.77;15.18;;;;;;;14.63;52.16;99464.02;1763944;80;20970;-77
2021/10/12 09:54:52;;;;;;;21.75;15.50;;;;;;;14.72;51.86;99458.83;1764374;80;21532;-74
2021/10/12 09:57:20;;;;;;;20.30;14.58;;;;;;;14.83;51.92;99452.22;1794851;79;20911;-77
2021/10/12 09:59:48;;;;;;;22.62;16.42;;;;;;;14.99;51.72;99456.97;1796668;79;20970;-76
2021/10/12 10:02:20;;;;;;;24.85;16.32;;;;;;;15.05;51.25;99443.66;1794802;79;21038;-76
2021/10/12 10:04:48;;;;;;;18.90;15.97;;;;;;;15.12;51.03;99440.05;1768110;80;20925;-76
2021/10/12 10:07:18;;;;;;;26.80;16.17;;;;;;;15.19;50.92;99440.53;1793086;80;21022;-74
2021/10/12 10:09:45;;;;;;;18.07;14.68;;;;;;;15.28;50.80;99434.20;1793729;79;20978;-73
2021/10/12 10:12:12;;;;;;;23.05;14.15;;;;;;;15.34;50.16;99426.84;1791927;80;21121;-76
2021/10/12 10:14:39;;;;;;;15.83;12.53;;;;;;;15.35;50.65;99424.36;1794179;79;21021;-75
2021/10/12 10:17:10;;;;;;;17.17;11.28;;;;;;;15.42;50.61;99420.78;1767169;80;20903;-71
2021/10/12 10:19:39;;;;;;;15.68;12.13;;;;;;;15.42;50.55;99420.78;1764633;80;21531;-73
2021/10/12 10:22:05;;;;;;;16.32;12.33;;;;;;;15.43;50.40;99416.98;1763082;80;21077;-73
2021/10/12 10:24:40;;;;;;;20.08;12.20;;;;;;;15.46;50.38;99414.23;1790200;80;21679;-75
2021/10/12 10:27:07;;;;;;;18.37;15.03;;;;;;;15.47;50.02;99414.49;1795551;79;21613;-77
2021/10/12 10:29:38;;;;;;;20.92;14.10;;;;;;;15.33;50.07;99411.66;1795213;80;20943;-77
2021/10/12 10:32:22;;;;;;;18.37;13.65;;;;;;;15.18;50.49;99409.11;1792930;79;21070;-75
2021/10/12 10:35:02;;;;;;;22.07;13.28;;;;;;;15.08;50.81;99418.15;1766238;80;21015;-74
2021/10/12 10:37:33;;;;;;;16.00;12.07;;;;;;;15.05;50.96;99405.19;1741552;80;21204;-74
2021/10/12 10:40:26;;;;;;;16.52;13.75;;;;;;;14.99;50.78;99405.52;1765224;80;20973;-75
2021/10/12 10:42:56;;;;;;;13.80;11.35;;;;;;;14.97;50.89;99402.27;1764032;80;20959;-78
2021/10/12 10:45:49;;;;;;;14.90;12.43;;;;;;;14.94;50.86;99400.95;1793603;80;21011;-75
2021/10/12 10:48:18;;;;;;;15.68;11.22;;;;;;;14.94;50.96;99395.53;1795288;79;21022;-74
2021/10/12 10:50:45;;;;;;;19.48;13.00;;;;;;;15.05;50.77;99393.55;1793362;80;21809;-81
2021/10/12 10:53:11;;;;;;;23.85;19.12;;;;;;;15.09;50.67;99387.81;1768930;80;21073;-76
2021/10/12 10:55:43;;;;;;;20.23;12.60;;;;;;;15.13;50.43;99395.62;1794680;80;20962;-74
2021/10/12 10:58:21;;;;;;;20.85;13.50;;;;;;;15.18;50.35;99390.15;1795559;79;21589;-83
2021/10/12 11:00:49;;;;;;;17.82;13.88;;;;;;;15.19;50.51;99391.23;1790855;79;20995;-84
2021/10/12 11:03:38;;;;;;;19.87;14.87;;;;;;;15.21;50.23;99386.31;1793791;80;21111;-75
2021/10/12 11:06:20;;;;;;;24.95;14.10;;;;;;;15.20;50.19;99381.98;1794816;79;21545;-75
2021/10/12 11:08:57;;;;;;;17.52;13.43;;;;;;;15.21;50.31;99378.73;1791731;80;21505;-77
2021/10/12 11:11:24;;;;;;;18.55;13.08;;;;;;;15.20;50.22;99382.55;1764418;80;21034;-80
2021/10/12 11:13:51;;;;;;;15.30;13.58;;;;;;;15.22;50.25;99375.74;1791089;79;20988;-75
2021/10/12 11:16:18;;;;;;;20.00;14.25;;;;;;;15.27;50.24;99370.27;1764016;80;21096;-74
2021/10/12 11:18:47;;;;;;;24.63;13.50;;;;;;;15.30;50.14;99372.16;1769601;79;21042;-81
2021/10/12 11:21:17;;;;;;;18.67;14.18;;;;;;;15.26;50.35;99365.12;1796368;79;20987;-80
2021/10/12 11:23:50;;;;;;;19.27;13.83;;;;;;;15.22;50.49;99366.26;1769328;79;20982;-83
2021/10/12 11:26:19;;;;;;;15.75;12.98;;;;;;;15.24;50.64;99366.80;1769942;79;21023;-81